Historyczne dane pomiarowe

Dodano dane terminowe – wersja testowa.

Dane z okresu 1951-2019

Wersja bazy: 1.34 [2019-03-16, lista zmian], aktualizacja planowana na 2019-04-15

Dane meteo z obszaru Polski uzyskane na podstawie danych udostępnionych przez Instytut Meteorologii i Gospodarki Wodnej – Państwowy Instytut Badawczy.

 

Wybierz Datę:    

       

TemperaturaWilgotnośćWiatrCiśnienieOpadyŚniegCzas trwania zjawisk
 Stacja t tx tn tng RH VA  wxwx mslp ppp RRR   cm mm wxwxwxwxwxwxwx
1961-08-14 12.7 18.4 6.1--- 4.0 0.3---- 0.0------------
1961-08-13 12.6 18.8 10.5--- 8.0 0.7---- 2.3------------
1961-08-12 18.7 24.6 14.9--- 5.3 1.0---- 8.4------------
1961-08-11 25.2 31.1 13.9--- 1.3 1.7---- 0.0------------
1961-08-10 20.5 31.1 13.1--- 2.0 0.7---- 0.0------------
1961-08-09 21.1 29.6 12.4--- 3.3 0.3---- 0.0------------
1961-08-08 19.2 25.7 12.0--- 5.7 0.3---- 0.0------------
1961-08-07 21.2 27.8 9.4--- 0.0 2.3---- 0.0------------
1961-08-06 20.1 26.7 8.5--- 0.3 1.3---- 0.0------------
1961-08-05 14.9 22.5 10.1--- 4.7 0.7---- 0.0------------
1961-08-04 14.1 20.3 11.1--- 6.3 0.7---- 0.0------------
1961-08-03 17.0 24.0 6.6--- 5.0 1.0---- 0.4------------
1961-08-02 15.4 24.8 5.4--- 0.7 0.3---- 0.0------------
1961-08-01 13.5 20.1 5.7--- 2.7 0.7---- 0.0------------
1961-07-31 12.6 17.2 9.4--- 5.7 2.0---- 0.3------------
1961-07-30 11.0 13.6 9.7--- 8.0 1.7---- 10.0------------
1961-07-29 13.5 22.3 10.9--- 6.0 1.0---- 27.8------------
1961-07-28 19.3 26.9 16.5--- 6.3 2.0---- 0.0------------
1961-07-27 19.5 24.5 4.4--- 2.0 1.7---- 0.0------------
1961-07-26 11.4 20.1 2.5--- 5.3 0.3---- 0.0------------
1961-07-25 9.9 17.1 5.8--- 5.0 1.7---- 0.0------------
1961-07-24 12.2 16.4 9.8--- 8.0 0.3---- 0.0------------
1961-07-23 15.2 21.1 5.6--- 3.7 0.3---- 0.8------------
1961-07-22 13.3 19.2 10.6--- 5.0 1.0---- 0.0------------
1961-07-21 14.0 18.8 10.7--- 7.3 1.3---- 3.5------------
1961-07-20 13.4 17.3 3.9--- 8.0 2.3---- 15.8------------
1961-07-19 11.4 20.9 3.3--- 5.0 0.7---- 3.1------------
1961-07-18 12.3 19.4 6.2--- 3.7 1.3---- 0.0------------
1961-07-17 13.8 22.1 11.1--- 4.7 0.0---- 1.8------------
1961-07-16 17.1 25.1 6.2--- 4.7 1.7---- 5.8------------
1961-07-15 15.6 22.2 3.8--- 2.0 1.7---- 0.0------------
1961-07-14 11.5 17.4 8.4--- 5.3 1.0---- 4.0------------
1961-07-13 20.6 27.3 9.0--- 3.3 5.0---- 5.9------------
1961-07-12 19.7 25.1 5.2--- 4.3 2.0---- 0.0------------
1961-07-11 13.5 19.6 4.3--- 4.0 1.3---- 0.0------------
1961-07-10 13.8 19.1 11.0--- 7.7 1.7---- 0.2------------
1961-07-09 15.1 22.8 2.7--- 4.0 0.3---- 0.2------------
1961-07-08 13.0 20.0 8.6--- 1.7 0.7---- 0.0------------
1961-07-07 12.0 18.7 0.5--- 5.7 1.0---- 0.0------------
1961-07-06 10.8 18.4 6.5--- 2.0 1.3---- 0.0------------
1961-07-05 13.7 21.0 11.3--- 8.0 0.7---- 1.9------------
1961-07-04 21.9 29.1 9.4--- 4.0 0.7---- 0.0------------
1961-07-03 16.8 27.8 5.2--- 0.0 0.7---- 0.0------------
1961-07-02 16.7 25.2 6.7--- 0.0 0.3---- 0.0------------
1961-07-01 15.7 25.4 6.1--- 1.7 0.7---- 0.0------------
1961-06-30 14.3 21.1 8.9--- 4.7 1.0---- 0.0------------
1961-06-29 14.1 18.6 3.1--- 4.7 0.7---- 0.0------------
1961-06-28 12.8 25.5 7.9--- 5.0 1.7---- 14.6------------
1961-06-27 25.7 29.3 10.0--- 2.0 2.7---- 0.0------------
1961-06-26 20.4 28.6 12.0--- 3.3 1.0---- 0.0------------
1961-06-25 20.8 27.2 5.4--- 0.0 1.0---- 0.0------------
1961-06-24 16.6 24.5 7.5--- 2.7 1.0---- 0.0------------
1961-06-23 15.1 21.7 7.8--- 7.7 2.0---- 2.1------------
1961-06-22 15.6 24.0 6.1--- 1.3 0.3---- 1.2------------
1961-06-21 15.1 23.6 3.7--- 3.0 0.0---- 0.0------------
1961-06-20 13.6 19.4 9.9--- 3.0 1.3---- 0.0------------
1961-06-19 20.2 27.1 8.9--- 4.0 0.3---- 12.2------------
1961-06-18 16.1 23.8 3.9--- 3.3 1.0---- 0.0------------
1961-06-17 11.2 20.3 2.9--- 0.7 0.7---- 0.0------------
1961-06-16 12.0 18.8 8.4--- 3.3 1.0---- 0.0------------
246.1 ms

 

Źródłem pochodzenia danych jest Instytut Meteorologii i Gospodarki Wodnej – Państwowy Instytut Badawczy. Dane Instytutu Meteorologii i Gospodarki Wodnej – Państwowego Instytutu Badawczego zostały przetworzone.

Dane źródłowe można odnaleźć na stronie https://dane.imgw.pl